sensor_id;sensor_type;location;lat;lon;timestamp;pressure;altitude;pressure_sealevel;temperature;humidity
21623;BME280;10973;46.706;12.340;2023-04-07T00:00:28;87173.97;;;2.27;37.77
21623;BME280;10973;46.706;12.340;2023-04-07T00:02:55;87177.72;;;2.30;37.60
21623;BME280;10973;46.706;12.340;2023-04-07T00:05:23;87181.84;;;2.31;37.73
21623;BME280;10973;46.706;12.340;2023-04-07T00:07:50;87166.81;;;2.24;37.68
21623;BME280;10973;46.706;12.340;2023-04-07T00:10:24;87184.78;;;2.17;37.70
21623;BME280;10973;46.706;12.340;2023-04-07T00:12:52;87176.56;;;2.15;38.18
21623;BME280;10973;46.706;12.340;2023-04-07T00:15:19;87174.94;;;2.10;38.08
21623;BME280;10973;46.706;12.340;2023-04-07T00:17:46;87169.72;;;2.10;38.38
21623;BME280;10973;46.706;12.340;2023-04-07T00:20:13;87174.94;;;2.10;38.04
21623;BME280;10973;46.706;12.340;2023-04-07T00:22:40;87174.81;;;2.07;38.23
21623;BME280;10973;46.706;12.340;2023-04-07T00:25:08;87177.88;;;2.09;38.31
21623;BME280;10973;46.706;12.340;2023-04-07T00:27:35;87172.88;;;2.04;38.46
21623;BME280;10973;46.706;12.340;2023-04-07T00:30:03;87176.34;;;2.08;38.62
21623;BME280;10973;46.706;12.340;2023-04-07T00:32:30;87164.09;;;2.08;38.56
21623;BME280;10973;46.706;12.340;2023-04-07T00:35:01;87161.81;;;2.07;38.74
21623;BME280;10973;46.706;12.340;2023-04-07T00:37:28;87164.09;;;2.08;38.44
21623;BME280;10973;46.706;12.340;2023-04-07T00:39:55;87167.00;;;2.07;38.22
21623;BME280;10973;46.706;12.340;2023-04-07T00:42:22;87161.81;;;2.07;38.38
21623;BME280;10973;46.706;12.340;2023-04-07T00:44:49;87160.53;;;2.01;38.48
21623;BME280;10973;46.706;12.340;2023-04-07T00:47:17;87155.00;;;2.02;38.79
21623;BME280;10973;46.706;12.340;2023-04-07T00:49:44;87156.53;;;2.03;38.53
21623;BME280;10973;46.706;12.340;2023-04-07T00:52:12;87148.19;;;1.98;38.79
21623;BME280;10973;46.706;12.340;2023-04-07T00:54:41;87151.66;;;2.02;38.95
21623;BME280;10973;46.706;12.340;2023-04-07T00:57:09;87150.91;;;2.01;39.15
21623;BME280;10973;46.706;12.340;2023-04-07T00:59:36;87147.09;;;1.99;39.01
21623;BME280;10973;46.706;12.340;2023-04-07T01:02:15;87144.59;;;2.02;38.67
21623;BME280;10973;46.706;12.340;2023-04-07T01:05:05;87141.03;;;2.07;38.74
21623;BME280;10973;46.706;12.340;2023-04-07T01:07:57;87138.88;;;2.09;38.31
21623;BME280;10973;46.706;12.340;2023-04-07T01:10:36;87141.25;;;2.14;38.01
21623;BME280;10973;46.706;12.340;2023-04-07T01:13:22;87138.22;;;2.12;38.06
21623;BME280;10973;46.706;12.340;2023-04-07T01:15:53;87134.44;;;2.09;38.21
21623;BME280;10973;46.706;12.340;2023-04-07T01:18:30;87143.41;;;2.12;38.47
21623;BME280;10973;46.706;12.340;2023-04-07T01:21:08;87131.59;;;2.14;38.42
21623;BME280;10973;46.706;12.340;2023-04-07T01:26:46;87126.06;;;2.16;38.64
21623;BME280;10973;46.706;12.340;2023-04-07T01:29:38;87119.38;;;2.15;38.82
21623;BME280;10973;46.706;12.340;2023-04-07T01:32:10;87122.31;;;2.13;38.86
21623;BME280;10973;46.706;12.340;2023-04-07T01:34:40;87122.63;;;2.12;38.92
21623;BME280;10973;46.706;12.340;2023-04-07T01:37:08;87118.84;;;2.09;38.72
21623;BME280;10973;46.706;12.340;2023-04-07T01:39:37;87119.81;;;2.05;38.64
21623;BME280;10973;46.706;12.340;2023-04-07T01:42:06;87119.03;;;2.04;39.00
21623;BME280;10973;46.706;12.340;2023-04-07T01:44:35;87119.38;;;2.03;38.85
21623;BME280;10973;46.706;12.340;2023-04-07T01:47:04;87113.75;;;2.01;38.96
21623;BME280;10973;46.706;12.340;2023-04-07T01:49:34;87116.03;;;2.02;39.00
21623;BME280;10973;46.706;12.340;2023-04-07T01:52:03;87112.03;;;1.93;38.84
21623;BME280;10973;46.706;12.340;2023-04-07T01:54:31;87106.19;;;1.96;38.79
21623;BME280;10973;46.706;12.340;2023-04-07T01:56:59;87104.34;;;1.96;38.65
21623;BME280;10973;46.706;12.340;2023-04-07T01:59:27;87104.88;;;1.90;38.33
21623;BME280;10973;46.706;12.340;2023-04-07T02:01:54;87100.34;;;1.87;39.20
21623;BME280;10973;46.706;12.340;2023-04-07T02:04:51;87094.72;;;1.85;39.29
21623;BME280;10973;46.706;12.340;2023-04-07T02:10:12;87096.66;;;1.76;39.50
21623;BME280;10973;46.706;12.340;2023-04-07T02:12:42;87097.44;;;1.76;39.70
21623;BME280;10973;46.706;12.340;2023-04-07T02:15:12;87093.44;;;1.79;39.46
21623;BME280;10973;46.706;12.340;2023-04-07T02:17:45;87089.09;;;1.83;39.52
21623;BME280;10973;46.706;12.340;2023-04-07T02:20:15;87097.53;;;1.80;39.39
21623;BME280;10973;46.706;12.340;2023-04-07T02:22:44;87086.28;;;1.76;39.54
21623;BME280;10973;46.706;12.340;2023-04-07T02:27:53;87088.00;;;1.72;39.66
21623;BME280;10973;46.706;12.340;2023-04-07T02:30:21;87085.09;;;1.73;39.80
21623;BME280;10973;46.706;12.340;2023-04-07T02:32:49;87079.47;;;1.71;39.59
21623;BME280;10973;46.706;12.340;2023-04-07T02:35:17;87078.25;;;1.69;39.96
21623;BME280;10973;46.706;12.340;2023-04-07T02:37:45;87083.38;;;1.65;39.82
21623;BME280;10973;46.706;12.340;2023-04-07T02:40:13;87078.16;;;1.65;39.87
21623;BME280;10973;46.706;12.340;2023-04-07T02:42:41;87077.41;;;1.65;40.20
21623;BME280;10973;46.706;12.340;2023-04-07T02:45:09;87080.00;;;1.65;40.04
21623;BME280;10973;46.706;12.340;2023-04-07T02:47:39;87081.06;;;1.64;39.73
21623;BME280;10973;46.706;12.340;2023-04-07T02:50:07;87077.41;;;1.65;39.83
21623;BME280;10973;46.706;12.340;2023-04-07T02:52:35;87079.66;;;1.66;39.81
21623;BME280;10973;46.706;12.340;2023-04-07T02:55:02;87075.66;;;1.69;39.61
21623;BME280;10973;46.706;12.340;2023-04-07T02:57:30;87067.13;;;1.68;40.02
21623;BME280;10973;46.706;12.340;2023-04-07T02:59:58;87057.41;;;1.65;40.03
21623;BME280;10973;46.706;12.340;2023-04-07T03:02:25;87062.16;;;1.63;40.18
21623;BME280;10973;46.706;12.340;2023-04-07T03:04:53;87058.81;;;1.63;40.18
21623;BME280;10973;46.706;12.340;2023-04-07T03:07:21;87058.69;;;1.59;39.97
21623;BME280;10973;46.706;12.340;2023-04-07T03:09:48;87058.38;;;1.61;40.15
21623;BME280;10973;46.706;12.340;2023-04-07T03:12:15;87060.63;;;1.62;40.07
21623;BME280;10973;46.706;12.340;2023-04-07T03:14:43;87056.31;;;1.54;39.60
21623;BME280;10973;46.706;12.340;2023-04-07T03:17:10;87054.47;;;1.55;39.62
21623;BME280;10973;46.706;12.340;2023-04-07T03:19:37;87050.69;;;1.52;39.81
21623;BME280;10973;46.706;12.340;2023-04-07T03:22:04;87048.41;;;1.51;40.08
21623;BME280;10973;46.706;12.340;2023-04-07T03:24:32;87049.81;;;1.48;40.34
21623;BME280;10973;46.706;12.340;2023-04-07T03:26:59;87046.03;;;1.45;40.61
21623;BME280;10973;46.706;12.340;2023-04-07T03:29:27;87044.09;;;1.42;40.63
21623;BME280;10973;46.706;12.340;2023-04-07T03:31:55;87033.03;;;1.45;40.71
21623;BME280;10973;46.706;12.340;2023-04-07T03:34:22;87037.50;;;1.45;40.97
21623;BME280;10973;46.706;12.340;2023-04-07T03:36:50;87033.81;;;1.46;40.96
21623;BME280;10973;46.706;12.340;2023-04-07T03:39:18;87044.19;;;1.46;40.57
21623;BME280;10973;46.706;12.340;2023-04-07T03:41:45;87042.25;;;1.43;40.46
21623;BME280;10973;46.706;12.340;2023-04-07T03:44:16;87046.69;;;1.42;40.68
21623;BME280;10973;46.706;12.340;2023-04-07T03:46:47;87040.41;;;1.43;40.82
21623;BME280;10973;46.706;12.340;2023-04-07T03:49:16;87040.41;;;1.43;40.99
21623;BME280;10973;46.706;12.340;2023-04-07T03:51:44;87042.34;;;1.47;40.92
21623;BME280;10973;46.706;12.340;2023-04-07T03:54:15;87047.66;;;1.50;41.39
21623;BME280;10973;46.706;12.340;2023-04-07T03:56:42;87047.78;;;1.54;41.01
21623;BME280;10973;46.706;12.340;2023-04-07T03:59:10;87041.28;;;1.48;40.62
21623;BME280;10973;46.706;12.340;2023-04-07T04:01:37;87037.25;;;1.50;41.04
21623;BME280;10973;46.706;12.340;2023-04-07T04:04:05;87042.03;;;1.48;40.97
21623;BME280;10973;46.706;12.340;2023-04-07T04:06:32;87041.28;;;1.48;41.15
21623;BME280;10973;46.706;12.340;2023-04-07T04:09:00;87043.44;;;1.45;41.13
21623;BME280;10973;46.706;12.340;2023-04-07T04:11:28;87041.59;;;1.46;41.29
21623;BME280;10973;46.706;12.340;2023-04-07T04:13:57;87039.75;;;1.47;40.98
21623;BME280;10973;46.706;12.340;2023-04-07T04:16:24;87036.63;;;1.41;41.29
21623;BME280;10973;46.706;12.340;2023-04-07T04:18:52;87039.34;;;1.44;41.72
21623;BME280;10973;46.706;12.340;2023-04-07T04:21:19;87037.81;;;1.43;41.80
21623;BME280;10973;46.706;12.340;2023-04-07T04:23:47;87034.78;;;1.41;41.03
21623;BME280;10973;46.706;12.340;2023-04-07T04:26:14;87040.09;;;1.45;41.10
21623;BME280;10973;46.706;12.340;2023-04-07T04:28:42;87038.91;;;1.42;41.77
21623;BME280;10973;46.706;12.340;2023-04-07T04:31:09;87038.13;;;1.42;41.60
21623;BME280;10973;46.706;12.340;2023-04-07T04:33:37;87040.41;;;1.43;41.68
21623;BME280;10973;46.706;12.340;2023-04-07T04:36:05;87035.63;;;1.45;41.96
21623;BME280;10973;46.706;12.340;2023-04-07T04:38:33;87038.22;;;1.45;41.94
21623;BME280;10973;46.706;12.340;2023-04-07T04:41:00;87042.25;;;1.43;42.20
21623;BME280;10973;46.706;12.340;2023-04-07T04:43:28;87031.97;;;1.47;42.36
21623;BME280;10973;46.706;12.340;2023-04-07T04:45:55;87039.13;;;1.50;42.09
21623;BME280;10973;46.706;12.340;2023-04-07T04:48:23;87038.44;;;1.53;42.08
21623;BME280;10973;46.706;12.340;2023-04-07T04:50:50;87032.94;;;1.54;42.24
21623;BME280;10973;46.706;12.340;2023-04-07T04:53:18;87033.69;;;1.55;41.92
21623;BME280;10973;46.706;12.340;2023-04-07T04:55:45;87031.75;;;1.52;42.26
21623;BME280;10973;46.706;12.340;2023-04-07T04:58:13;87031.09;;;1.55;42.51
21623;BME280;10973;46.706;12.340;2023-04-07T05:00:41;87024.81;;;1.56;42.23
21623;BME280;10973;46.706;12.340;2023-04-07T05:03:09;87031.44;;;1.53;42.47
21623;BME280;10973;46.706;12.340;2023-04-07T05:05:36;87038.88;;;1.55;42.29
21623;BME280;10973;46.706;12.340;2023-04-07T05:08:04;87035.97;;;1.56;42.21
21623;BME280;10973;46.706;12.340;2023-04-07T05:10:32;87028.50;;;1.55;42.79
21623;BME280;10973;46.706;12.340;2023-04-07T05:13:00;87032.63;;;1.56;42.75
21623;BME280;10973;46.706;12.340;2023-04-07T05:15:28;87035.63;;;1.58;42.53
21623;BME280;10973;46.706;12.340;2023-04-07T05:17:56;87028.63;;;1.58;42.56
21623;BME280;10973;46.706;12.340;2023-04-07T05:20:24;87029.03;;;1.60;42.40
21623;BME280;10973;46.706;12.340;2023-04-07T05:22:51;87024.06;;;1.67;42.50
21623;BME280;10973;46.706;12.340;2023-04-07T05:25:19;87031.63;;;1.72;42.41
21623;BME280;10973;46.706;12.340;2023-04-07T05:27:46;87030.13;;;1.71;42.46
21623;BME280;10973;46.706;12.340;2023-04-07T05:30:14;87030.13;;;1.71;42.68
21623;BME280;10973;46.706;12.340;2023-04-07T05:32:42;87028.78;;;1.77;43.03
21623;BME280;10973;46.706;12.340;2023-04-07T05:35:09;87031.94;;;1.83;42.70
21623;BME280;10973;46.706;12.340;2023-04-07T05:37:37;87019.94;;;1.90;42.60
21623;BME280;10973;46.706;12.340;2023-04-07T05:40:05;87025.31;;;1.97;42.87
21623;BME280;10973;46.706;12.340;2023-04-07T05:42:33;87027.38;;;2.04;42.44
21623;BME280;10973;46.706;12.340;2023-04-07T05:45:04;87027.56;;;2.11;42.19
21623;BME280;10973;46.706;12.340;2023-04-07T05:47:32;87025.91;;;2.18;42.39
21623;BME280;10973;46.706;12.340;2023-04-07T05:50:00;87036.41;;;2.22;42.12
21623;BME280;10973;46.706;12.340;2023-04-07T05:52:27;87026.88;;;2.26;42.50
21623;BME280;10973;46.706;12.340;2023-04-07T05:54:55;87025.09;;;2.30;41.86
21623;BME280;10973;46.706;12.340;2023-04-07T05:57:23;87027.25;;;2.40;42.24
21623;BME280;10973;46.706;12.340;2023-04-07T05:59:51;87025.59;;;2.48;42.28
21623;BME280;10973;46.706;12.340;2023-04-07T06:02:18;87027.66;;;2.54;41.71
21623;BME280;10973;46.706;12.340;2023-04-07T06:04:46;87020.44;;;2.63;41.55
21623;BME280;10973;46.706;12.340;2023-04-07T06:07:14;87025.16;;;2.73;41.19
21623;BME280;10973;46.706;12.340;2023-04-07T06:09:41;87026.94;;;2.85;40.79
21623;BME280;10973;46.706;12.340;2023-04-07T06:12:09;87023.78;;;2.92;39.96
21623;BME280;10973;46.706;12.340;2023-04-07T06:14:37;87020.28;;;3.00;40.44
21623;BME280;10973;46.706;12.340;2023-04-07T06:17:05;87024.19;;;3.09;39.85
21623;BME280;10973;46.706;12.340;2023-04-07T06:19:33;87022.97;;;3.19;40.18
21623;BME280;10973;46.706;12.340;2023-04-07T06:22:01;87021.94;;;3.23;39.40
21623;BME280;10973;46.706;12.340;2023-04-07T06:24:29;87017.25;;;3.29;39.57
21623;BME280;10973;46.706;12.340;2023-04-07T06:26:56;87022.22;;;3.34;39.55
21623;BME280;10973;46.706;12.340;2023-04-07T06:29:24;87019.75;;;3.41;38.95
21623;BME280;10973;46.706;12.340;2023-04-07T06:31:52;87015.84;;;3.47;39.18
21623;BME280;10973;46.706;12.340;2023-04-07T06:34:20;87008.91;;;3.54;38.99
21623;BME280;10973;46.706;12.340;2023-04-07T06:36:47;87013.56;;;3.61;39.58
21623;BME280;10973;46.706;12.340;2023-04-07T06:39:15;87012.97;;;3.68;39.23
21623;BME280;10973;46.706;12.340;2023-04-07T06:41:42;87010.84;;;3.73;39.28
21623;BME280;10973;46.706;12.340;2023-04-07T06:44:09;87008.38;;;3.80;38.95
21623;BME280;10973;46.706;12.340;2023-04-07T06:46:37;87010.50;;;3.90;38.84
21623;BME280;10973;46.706;12.340;2023-04-07T06:49:04;87005.34;;;3.94;37.86
21623;BME280;10973;46.706;12.340;2023-04-07T06:51:32;87003.22;;;3.99;38.12
21623;BME280;10973;46.706;12.340;2023-04-07T06:53:59;87005.66;;;4.08;38.27
21623;BME280;10973;46.706;12.340;2023-04-07T06:56:27;87004.28;;;4.14;37.94
21623;BME280;10973;46.706;12.340;2023-04-07T06:58:55;87004.78;;;4.19;37.81
21623;BME280;10973;46.706;12.340;2023-04-07T07:01:22;87010.19;;;4.30;36.98
21623;BME280;10973;46.706;12.340;2023-04-07T07:03:49;87013.72;;;4.38;36.93
21623;BME280;10973;46.706;12.340;2023-04-07T07:06:18;87006.44;;;4.47;36.57
21623;BME280;10973;46.706;12.340;2023-04-07T07:08:46;87005.06;;;4.53;35.27
21623;BME280;10973;46.706;12.340;2023-04-07T07:11:13;87004.03;;;4.57;35.06
21623;BME280;10973;46.706;12.340;2023-04-07T07:13:40;86998.59;;;4.66;34.90
21623;BME280;10973;46.706;12.340;2023-04-07T07:16:07;86993.09;;;4.71;34.47
21623;BME280;10973;46.706;12.340;2023-04-07T07:18:35;86996.88;;;4.73;32.79
21623;BME280;10973;46.706;12.340;2023-04-07T07:21:02;86992.97;;;4.83;32.97
21623;BME280;10973;46.706;12.340;2023-04-07T07:23:30;86994.66;;;4.94;32.96
21623;BME280;10973;46.706;12.340;2023-04-07T07:25:57;86992.53;;;5.00;32.65
21623;BME280;10973;46.706;12.340;2023-04-07T07:28:24;86990.03;;;5.07;32.76
21623;BME280;10973;46.706;12.340;2023-04-07T07:30:51;86986.50;;;5.19;32.75
21623;BME280;10973;46.706;12.340;2023-04-07T07:33:19;86984.81;;;5.30;32.68
21623;BME280;10973;46.706;12.340;2023-04-07T07:35:46;86983.09;;;5.37;32.20
21623;BME280;10973;46.706;12.340;2023-04-07T07:38:13;86980.97;;;5.43;31.86
21623;BME280;10973;46.706;12.340;2023-04-07T07:40:40;86974.91;;;5.39;31.53
21623;BME280;10973;46.706;12.340;2023-04-07T07:43:08;86978.16;;;5.55;31.54
21623;BME280;10973;46.706;12.340;2023-04-07T07:45:35;86970.91;;;5.45;31.43
21623;BME280;10973;46.706;12.340;2023-04-07T07:48:02;86964.00;;;5.56;30.91
21623;BME280;10973;46.706;12.340;2023-04-07T07:50:30;86968.50;;;5.59;31.19
21623;BME280;10973;46.706;12.340;2023-04-07T07:52:57;86958.56;;;5.68;30.91
21623;BME280;10973;46.706;12.340;2023-04-07T07:55:24;86954.88;;;5.72;30.53
21623;BME280;10973;46.706;12.340;2023-04-07T07:57:52;86957.28;;;5.81;30.68
21623;BME280;10973;46.706;12.340;2023-04-07T08:00:19;86960.84;;;5.96;30.47
21623;BME280;10973;46.706;12.340;2023-04-07T08:02:46;86950.59;;;6.10;30.18
21623;BME280;10973;46.706;12.340;2023-04-07T08:05:14;86947.97;;;6.10;29.78
21623;BME280;10973;46.706;12.340;2023-04-07T08:07:42;86947.41;;;6.23;30.15
21623;BME280;10973;46.706;12.340;2023-04-07T08:10:10;86946.75;;;6.30;30.21
21623;BME280;10973;46.706;12.340;2023-04-07T08:12:37;86942.97;;;6.27;29.89
21623;BME280;10973;46.706;12.340;2023-04-07T08:15:05;86939.69;;;6.34;29.17
21623;BME280;10973;46.706;12.340;2023-04-07T08:17:33;86942.28;;;6.34;29.49
21623;BME280;10973;46.706;12.340;2023-04-07T08:20:00;86937.50;;;6.39;29.09
21623;BME280;10973;46.706;12.340;2023-04-07T08:22:27;86935.09;;;6.57;29.32
21623;BME280;10973;46.706;12.340;2023-04-07T08:24:55;86929.28;;;6.71;29.38
21623;BME280;10973;46.706;12.340;2023-04-07T08:27:22;86922.66;;;6.80;29.35
21623;BME280;10973;46.706;12.340;2023-04-07T08:30:01;86925.25;;;6.77;28.58
21623;BME280;10973;46.706;12.340;2023-04-07T08:32:40;86917.09;;;6.85;29.12
21623;BME280;10973;46.706;12.340;2023-04-07T08:35:08;86910.84;;;6.97;29.44
21623;BME280;10973;46.706;12.340;2023-04-07T08:37:37;86912.81;;;7.07;28.84
21623;BME280;10973;46.706;12.340;2023-04-07T08:40:05;86910.25;;;7.14;29.27
21623;BME280;10973;46.706;12.340;2023-04-07T08:42:34;86897.59;;;7.23;29.44
21623;BME280;10973;46.706;12.340;2023-04-07T08:45:05;86899.19;;;7.35;29.49
21623;BME280;10973;46.706;12.340;2023-04-07T08:47:35;86900.41;;;7.44;29.65
21623;BME280;10973;46.706;12.340;2023-04-07T08:50:09;86899.38;;;7.56;29.37
21623;BME280;10973;46.706;12.340;2023-04-07T08:52:53;86900.84;;;7.53;29.38
21623;BME280;10973;46.706;12.340;2023-04-07T08:55:21;86894.91;;;7.60;28.99
21623;BME280;10973;46.706;12.340;2023-04-07T08:57:50;86891.59;;;7.66;29.45
21623;BME280;10973;46.706;12.340;2023-04-07T09:00:18;86885.28;;;7.74;29.56
21623;BME280;10973;46.706;12.340;2023-04-07T09:02:46;86884.22;;;7.86;29.33
21623;BME280;10973;46.706;12.340;2023-04-07T09:05:14;86885.78;;;7.94;29.51
21623;BME280;10973;46.706;12.340;2023-04-07T09:07:41;86891.78;;;7.98;29.08
21623;BME280;10973;46.706;12.340;2023-04-07T09:10:09;86896.66;;;8.00;28.77
21623;BME280;10973;46.706;12.340;2023-04-07T09:12:37;86890.72;;;8.06;28.94
21623;BME280;10973;46.706;12.340;2023-04-07T09:15:06;86884.72;;;8.09;29.19
21623;BME280;10973;46.706;12.340;2023-04-07T09:17:34;86890.72;;;8.06;29.34
21623;BME280;10973;46.706;12.340;2023-04-07T09:20:02;86889.63;;;8.11;29.28
21623;BME280;10973;46.706;12.340;2023-04-07T09:22:41;86882.88;;;8.13;29.06
21623;BME280;10973;46.706;12.340;2023-04-07T09:25:21;86879.50;;;8.16;29.21
21623;BME280;10973;46.706;12.340;2023-04-07T09:28:03;86883.28;;;8.19;29.18
21623;BME280;10973;46.706;12.340;2023-04-07T09:30:32;86874.28;;;8.16;29.66
21623;BME280;10973;46.706;12.340;2023-04-07T09:33:00;86877.72;;;8.27;29.60
21623;BME280;10973;46.706;12.340;2023-04-07T09:35:28;86868.78;;;8.39;29.52
21623;BME280;10973;46.706;12.340;2023-04-07T09:38:06;86871.47;;;8.49;29.25
21623;BME280;10973;46.706;12.340;2023-04-07T09:40:35;86863.16;;;8.37;29.47
21623;BME280;10973;46.706;12.340;2023-04-07T09:43:04;86865.84;;;8.51;29.62
21623;BME280;10973;46.706;12.340;2023-04-07T09:45:32;86871.84;;;8.55;29.60
21623;BME280;10973;46.706;12.340;2023-04-07T09:48:26;86862.50;;;8.65;29.37
21623;BME280;10973;46.706;12.340;2023-04-07T09:51:10;86858.38;;;8.71;29.25
21623;BME280;10973;46.706;12.340;2023-04-07T09:53:49;86851.25;;;8.75;29.05
21623;BME280;10973;46.706;12.340;2023-04-07T09:56:20;86853.19;;;8.81;29.61
21623;BME280;10973;46.706;12.340;2023-04-07T09:58:49;86851.28;;;8.82;29.39
21623;BME280;10973;46.706;12.340;2023-04-07T10:01:17;86846.81;;;8.96;29.54
21623;BME280;10973;46.706;12.340;2023-04-07T10:03:46;86849.09;;;9.15;29.22
21623;BME280;10973;46.706;12.340;2023-04-07T10:06:15;86837.09;;;9.21;28.87
21623;BME280;10973;46.706;12.340;2023-04-07T10:08:43;86841.59;;;9.39;29.04
21623;BME280;10973;46.706;12.340;2023-04-07T10:11:14;86829.22;;;9.36;28.52
21623;BME280;10973;46.706;12.340;2023-04-07T10:13:42;86838.59;;;9.54;28.45
21623;BME280;10973;46.706;12.340;2023-04-07T10:16:09;86839.34;;;9.62;27.84
21623;BME280;10973;46.706;12.340;2023-04-07T10:18:39;86834.44;;;9.78;28.01
21623;BME280;10973;46.706;12.340;2023-04-07T10:21:07;86827.66;;;9.84;27.93
21623;BME280;10973;46.706;12.340;2023-04-07T10:26:34;86832.16;;;10.12;27.19
21623;BME280;10973;46.706;12.340;2023-04-07T10:29:09;86811.78;;;10.37;26.63
21623;BME280;10973;46.706;12.340;2023-04-07T10:31:38;86803.41;;;10.59;26.52
21623;BME280;10973;46.706;12.340;2023-04-07T10:34:06;86810.00;;;10.96;26.10
21623;BME280;10973;46.706;12.340;2023-04-07T10:36:33;86806.00;;;11.32;25.80
21623;BME280;10973;46.706;12.340;2023-04-07T10:41:39;86792.25;;;12.40;24.45
21623;BME280;10973;46.706;12.340;2023-04-07T10:44:08;86801.03;;;12.94;23.85
21623;BME280;10973;46.706;12.340;2023-04-07T10:47:02;86794.63;;;13.51;22.35
21623;BME280;10973;46.706;12.340;2023-04-07T10:49:31;86787.88;;;13.93;22.11
21623;BME280;10973;46.706;12.340;2023-04-07T10:54:39;86783.34;;;14.60;21.30
21623;BME280;10973;46.706;12.340;2023-04-07T10:57:16;86788.03;;;14.91;20.91
21623;BME280;10973;46.706;12.340;2023-04-07T11:02:38;86782.31;;;15.29;21.05
21623;BME280;10973;46.706;12.340;2023-04-07T11:05:06;86774.69;;;15.15;20.57
21623;BME280;10973;46.706;12.340;2023-04-07T11:07:49;86768.38;;;14.89;19.96
21623;BME280;10973;46.706;12.340;2023-04-07T11:10:17;86778.59;;;14.71;20.78
21623;BME280;10973;46.706;12.340;2023-04-07T11:13:04;86768.03;;;14.48;20.13
21623;BME280;10973;46.706;12.340;2023-04-07T11:15:35;86770.31;;;14.26;20.43
21623;BME280;10973;46.706;12.340;2023-04-07T11:18:14;86770.16;;;13.90;20.75
21623;BME280;10973;46.706;12.340;2023-04-07T11:20:50;86772.00;;;13.70;20.67
21623;BME280;10973;46.706;12.340;2023-04-07T11:23:20;86772.44;;;13.42;20.65
21623;BME280;10973;46.706;12.340;2023-04-07T11:25:51;86770.78;;;13.25;20.62
21623;BME280;10973;46.706;12.340;2023-04-07T11:28:19;86768.72;;;13.13;20.86
21623;BME280;10973;46.706;12.340;2023-04-07T11:30:51;86765.16;;;13.23;21.66
21623;BME280;10973;46.706;12.340;2023-04-07T11:33:25;86760.38;;;13.64;21.25
21623;BME280;10973;46.706;12.340;2023-04-07T11:35:58;86766.28;;;13.95;20.46
21623;BME280;10973;46.706;12.340;2023-04-07T11:38:37;86747.28;;;14.43;20.33
21623;BME280;10973;46.706;12.340;2023-04-07T11:41:14;86747.16;;;14.89;21.33
21623;BME280;10973;46.706;12.340;2023-04-07T11:43:42;86736.22;;;15.23;20.47
21623;BME280;10973;46.706;12.340;2023-04-07T11:46:17;86739.59;;;15.59;19.64
21623;BME280;10973;46.706;12.340;2023-04-07T11:48:45;86735.28;;;15.65;19.94
21623;BME280;10973;46.706;12.340;2023-04-07T11:51:22;86738.19;;;15.70;20.23
21623;BME280;10973;46.706;12.340;2023-04-07T11:53:55;86739.69;;;15.55;19.89
21623;BME280;10973;46.706;12.340;2023-04-07T11:56:23;86738.94;;;15.19;19.75
21623;BME280;10973;46.706;12.340;2023-04-07T11:58:53;86740.53;;;14.97;19.64
21623;BME280;10973;46.706;12.340;2023-04-07T12:01:22;86750.81;;;14.36;20.73
21623;BME280;10973;46.706;12.340;2023-04-07T12:03:58;86750.16;;;14.09;20.49
21623;BME280;10973;46.706;12.340;2023-04-07T12:06:33;86745.09;;;13.95;21.43
21623;BME280;10973;46.706;12.340;2023-04-07T12:09:02;86743.81;;;13.83;21.60
21623;BME280;10973;46.706;12.340;2023-04-07T12:11:49;86749.66;;;13.48;21.71
21623;BME280;10973;46.706;12.340;2023-04-07T12:14:16;86735.59;;;13.28;22.27
21623;BME280;10973;46.706;12.340;2023-04-07T12:16:43;86739.13;;;12.91;22.01
21623;BME280;10973;46.706;12.340;2023-04-07T12:19:11;86757.06;;;12.76;22.64
21623;BME280;10973;46.706;12.340;2023-04-07T12:21:42;86761.97;;;12.78;22.88
21623;BME280;10973;46.706;12.340;2023-04-07T12:24:09;86754.53;;;12.69;23.19
21623;BME280;10973;46.706;12.340;2023-04-07T12:26:36;86755.38;;;12.59;24.24
21623;BME280;10973;46.706;12.340;2023-04-07T12:29:04;86754.00;;;12.51;24.36
21623;BME280;10973;46.706;12.340;2023-04-07T12:31:32;86750.81;;;12.33;23.70
21623;BME280;10973;46.706;12.340;2023-04-07T12:33:59;86752.88;;;12.15;24.04
21623;BME280;10973;46.706;12.340;2023-04-07T12:36:27;86752.56;;;12.09;23.92
21623;BME280;10973;46.706;12.340;2023-04-07T12:38:55;86762.50;;;11.95;24.25
21623;BME280;10973;46.706;12.340;2023-04-07T12:41:23;86758.81;;;11.89;24.49
21623;BME280;10973;46.706;12.340;2023-04-07T12:43:51;86770.94;;;11.83;24.37
21623;BME280;10973;46.706;12.340;2023-04-07T12:46:19;86764.56;;;11.77;24.60
21623;BME280;10973;46.706;12.340;2023-04-07T12:48:46;86762.38;;;11.68;24.52
21623;BME280;10973;46.706;12.340;2023-04-07T12:51:14;86765.09;;;11.58;24.63
21623;BME280;10973;46.706;12.340;2023-04-07T12:53:41;86768.13;;;11.56;24.35
21623;BME280;10973;46.706;12.340;2023-04-07T12:56:09;86763.22;;;11.58;24.95
21623;BME280;10973;46.706;12.340;2023-04-07T12:58:36;86771.84;;;11.59;25.24
21623;BME280;10973;46.706;12.340;2023-04-07T13:01:03;86762.03;;;11.63;24.94
21623;BME280;10973;46.706;12.340;2023-04-07T13:03:31;86765.44;;;11.60;25.36
21623;BME280;10973;46.706;12.340;2023-04-07T13:05:58;86773.13;;;11.43;25.33
21623;BME280;10973;46.706;12.340;2023-04-07T13:08:29;86770.16;;;11.38;25.90
21623;BME280;10973;46.706;12.340;2023-04-07T13:10:56;86767.94;;;11.29;25.40
21623;BME280;10973;46.706;12.340;2023-04-07T13:13:24;86769.50;;;11.23;26.20
21623;BME280;10973;46.706;12.340;2023-04-07T13:15:51;86775.19;;;11.18;25.95
21623;BME280;10973;46.706;12.340;2023-04-07T13:18:18;86768.03;;;11.15;26.11
21623;BME280;10973;46.706;12.340;2023-04-07T13:20:45;86774.88;;;11.09;26.80
21623;BME280;10973;46.706;12.340;2023-04-07T13:23:33;86771.09;;;11.14;26.24
21623;BME280;10973;46.706;12.340;2023-04-07T13:26:10;86768.44;;;11.17;26.28
21623;BME280;10973;46.706;12.340;2023-04-07T13:28:37;86758.97;;;11.23;25.94